createdAt,value
2022-12-13T00:01:54.699Z,16.80
2022-12-13T00:04:24.262Z,18.60
2022-12-13T00:06:54.113Z,17.10
2022-12-13T00:09:23.150Z,18.90
2022-12-13T00:11:52.239Z,15.50
2022-12-13T00:14:20.589Z,12.20
2022-12-13T00:16:49.587Z,11.60
2022-12-13T00:19:18.639Z,19.00
2022-12-13T00:21:47.293Z,11.90
2022-12-13T00:24:15.172Z,10.30
2022-12-13T00:26:43.089Z,18.10
2022-12-13T00:29:11.862Z,12.10
2022-12-13T00:34:28.896Z,21.50
2022-12-13T00:36:59.333Z,11.90
2022-12-13T00:39:28.273Z,16.40
2022-12-13T00:41:56.288Z,61.80
2022-12-13T00:44:24.540Z,11.90
2022-12-13T00:46:53.293Z,11.50
2022-12-13T00:49:21.353Z,10.40
2022-12-13T00:51:49.905Z,11.50
2022-12-13T00:54:18.057Z,12.70
2022-12-13T00:56:46.240Z,14.30
2022-12-13T00:59:15.408Z,11.20
2022-12-13T01:01:44.537Z,17.20
2022-12-13T01:04:12.890Z,17.20
2022-12-13T01:06:43.746Z,11.40
2022-12-13T01:09:20.452Z,8.70
2022-12-13T01:11:49.652Z,8.20
2022-12-13T01:14:19.863Z,10.80
2022-12-13T01:16:48.308Z,8.90
2022-12-13T01:19:16.631Z,12.20
2022-12-13T01:21:44.523Z,16.90
2022-12-13T01:24:12.434Z,9.50
2022-12-13T01:26:40.347Z,11.50
2022-12-13T01:29:09.065Z,12.70
2022-12-13T01:31:41.481Z,10.20
2022-12-13T01:34:11.666Z,11.80
2022-12-13T01:36:41.628Z,12.20
2022-12-13T01:39:14.678Z,12.30
2022-12-13T01:41:59.671Z,10.90
2022-12-13T01:44:55.941Z,10.90
2022-12-13T01:48:05.136Z,14.70
2022-12-13T01:50:37.395Z,11.80
2022-12-13T01:53:07.872Z,11.00
2022-12-13T01:55:41.477Z,19.30
2022-12-13T01:58:12.654Z,16.10
2022-12-13T02:00:40.924Z,11.00
2022-12-13T02:03:21.110Z,9.20
2022-12-13T02:06:07.597Z,9.60
2022-12-13T02:11:06.898Z,9.60
2022-12-13T02:13:36.654Z,10.20
2022-12-13T02:16:28.628Z,14.30
2022-12-13T02:19:29.326Z,9.80
2022-12-13T02:22:31.048Z,9.70
2022-12-13T02:25:17.078Z,8.80
2022-12-13T02:28:30.221Z,9.80
2022-12-13T02:31:12.140Z,9.90
2022-12-13T02:33:53.297Z,9.20
2022-12-13T02:36:48.254Z,10.20
2022-12-13T02:39:29.732Z,12.20
2022-12-13T02:42:21.452Z,12.10
2022-12-13T02:44:57.762Z,9.10
2022-12-13T02:47:28.476Z,18.60
2022-12-13T02:49:59.800Z,8.40
2022-12-13T02:52:31.135Z,12.10
2022-12-13T02:55:03.240Z,15.40
2022-12-13T02:57:31.141Z,13.40
2022-12-13T03:00:11.413Z,11.50
2022-12-13T03:02:39.435Z,9.80
2022-12-13T03:05:58.944Z,9.80
2022-12-13T03:08:31.775Z,7.90
2022-12-13T03:11:05.974Z,10.60
2022-12-13T03:13:48.925Z,8.90
2022-12-13T03:16:36.420Z,9.40
2022-12-13T03:19:08.081Z,7.20
2022-12-13T03:21:47.594Z,11.00
2022-12-13T03:24:18.674Z,7.70
2022-12-13T03:26:48.586Z,7.70
2022-12-13T03:29:24.321Z,9.40
2022-12-13T03:31:53.731Z,8.70
2022-12-13T03:34:22.369Z,14.20
2022-12-13T03:36:52.657Z,8.10
2022-12-13T03:39:21.300Z,7.50
2022-12-13T03:41:50.340Z,8.80
2022-12-13T03:44:18.859Z,7.50
2022-12-13T03:46:47.020Z,6.80
2022-12-13T03:49:17.342Z,7.70
2022-12-13T03:51:45.858Z,7.70
2022-12-13T03:54:13.910Z,9.60
2022-12-13T03:56:41.861Z,9.50
2022-12-13T03:59:09.727Z,9.20
2022-12-13T04:01:37.699Z,8.70
2022-12-13T04:04:05.689Z,8.80
2022-12-13T04:06:33.762Z,7.40
2022-12-13T04:09:01.767Z,9.30
2022-12-13T04:11:48.353Z,9.80
2022-12-13T04:14:21.680Z,10.80
2022-12-13T04:16:52.458Z,10.80
2022-12-13T04:19:23.831Z,8.80
2022-12-13T04:21:54.524Z,9.00
2022-12-13T04:24:30.804Z,8.70
2022-12-13T04:27:01.568Z,11.50
2022-12-13T04:29:34.211Z,8.50
2022-12-13T04:32:05.068Z,9.50
2022-12-13T04:34:37.626Z,10.00
2022-12-13T04:37:06.323Z,10.40
2022-12-13T04:39:34.682Z,11.10
2022-12-13T04:42:03.549Z,9.80
2022-12-13T04:44:36.651Z,8.90
2022-12-13T04:47:05.480Z,9.70
2022-12-13T04:49:34.385Z,10.30
2022-12-13T04:52:02.731Z,10.20
2022-12-13T04:54:36.000Z,10.30
2022-12-13T04:57:06.914Z,9.40
2022-12-13T04:59:35.813Z,8.70
2022-12-13T05:02:05.255Z,7.80
2022-12-13T05:04:33.571Z,11.50
2022-12-13T05:07:02.356Z,10.00
2022-12-13T05:09:30.956Z,9.30
2022-12-13T05:12:00.903Z,9.00
2022-12-13T05:14:31.708Z,9.40
2022-12-13T05:17:01.160Z,12.40
2022-12-13T05:19:30.940Z,11.10
2022-12-13T05:22:01.432Z,11.00
2022-12-13T05:24:31.716Z,9.90
2022-12-13T05:27:00.240Z,10.30
2022-12-13T05:29:28.243Z,9.60
2022-12-13T05:31:56.212Z,11.60
2022-12-13T05:34:24.063Z,10.20
2022-12-13T05:36:51.855Z,10.10
2022-12-13T05:39:28.240Z,11.30
2022-12-13T05:42:01.924Z,12.00
2022-12-13T05:44:32.780Z,25.40
2022-12-13T05:47:02.151Z,12.10
2022-12-13T05:49:32.253Z,11.70
2022-12-13T05:52:00.219Z,11.80
2022-12-13T05:54:28.236Z,11.90
2022-12-13T05:56:56.425Z,10.00
2022-12-13T05:59:24.287Z,10.30
2022-12-13T06:01:52.388Z,9.00
2022-12-13T06:04:22.310Z,9.70
2022-12-13T06:06:52.724Z,9.00
2022-12-13T06:09:21.610Z,9.20
2022-12-13T06:11:50.230Z,11.70
2022-12-13T06:14:22.248Z,10.40
2022-12-13T06:16:52.898Z,11.20
2022-12-13T06:19:22.395Z,10.30
2022-12-13T06:21:52.630Z,9.80
2022-12-13T06:24:22.735Z,10.80
2022-12-13T06:26:51.388Z,11.90
2022-12-13T06:29:24.065Z,9.60
2022-12-13T06:32:03.575Z,10.70
2022-12-13T06:34:34.650Z,9.60
2022-12-13T06:37:07.118Z,10.20
2022-12-13T06:39:35.557Z,9.60
2022-12-13T06:42:06.541Z,10.80
2022-12-13T06:44:35.312Z,10.50
2022-12-13T06:47:10.619Z,11.90
2022-12-13T06:49:43.723Z,8.70
2022-12-13T06:52:14.185Z,7.00
2022-12-13T06:54:43.492Z,8.70
2022-12-13T06:57:13.097Z,11.20
2022-12-13T06:59:41.658Z,10.00
2022-12-13T07:02:24.442Z,9.90
2022-12-13T07:04:54.868Z,7.30
2022-12-13T07:07:24.685Z,11.50
2022-12-13T07:09:53.398Z,11.00
2022-12-13T07:12:21.653Z,8.10
2022-12-13T07:14:49.564Z,8.20
2022-12-13T07:17:32.840Z,10.80
2022-12-13T07:20:08.179Z,26.20
2022-12-13T07:22:43.248Z,13.00
2022-12-13T07:25:27.756Z,11.40
2022-12-13T07:28:01.610Z,10.50
2022-12-13T07:30:33.595Z,9.20
2022-12-13T07:33:03.622Z,9.20
2022-12-13T07:35:37.177Z,8.20
2022-12-13T07:38:07.822Z,9.90
2022-12-13T07:40:40.433Z,11.20
2022-12-13T07:43:10.125Z,13.50
2022-12-13T07:45:38.713Z,11.90
2022-12-13T07:48:08.632Z,10.90
2022-12-13T07:50:37.183Z,13.70
2022-12-13T07:53:09.124Z,12.50
2022-12-13T07:55:37.988Z,11.70
2022-12-13T07:58:15.787Z,16.50
2022-12-13T08:00:46.658Z,20.90
2022-12-13T08:03:25.691Z,19.30
2022-12-13T08:06:09.289Z,13.40
2022-12-13T08:08:38.223Z,9.60
2022-12-13T08:11:11.846Z,9.00
2022-12-13T08:13:40.985Z,12.90
2022-12-13T08:16:28.073Z,11.30
2022-12-13T08:19:02.725Z,12.10
2022-12-13T08:21:55.106Z,14.60
2022-12-13T08:24:25.051Z,10.20
2022-12-13T08:27:01.268Z,12.10
2022-12-13T08:29:34.799Z,12.00
2022-12-13T08:32:11.271Z,9.50
2022-12-13T08:34:41.498Z,10.70
2022-12-13T08:37:09.619Z,9.40
2022-12-13T08:39:39.218Z,10.60
2022-12-13T08:42:16.588Z,11.10
2022-12-13T08:44:51.566Z,10.10
2022-12-13T08:47:25.498Z,9.50
2022-12-13T08:50:02.835Z,13.60
2022-12-13T08:52:39.205Z,12.10
2022-12-13T08:55:14.475Z,12.00
2022-12-13T08:57:44.518Z,12.20
2022-12-13T09:00:18.314Z,14.80
2022-12-13T09:02:46.693Z,14.60
2022-12-13T09:05:33.079Z,20.50
2022-12-13T09:08:04.478Z,18.20
2022-12-13T09:11:11.434Z,14.10
2022-12-13T09:13:50.380Z,12.80
2022-12-13T09:16:24.433Z,10.40
2022-12-13T09:18:54.770Z,11.90
2022-12-13T09:21:31.314Z,29.40
2022-12-13T09:24:01.418Z,48.40
2022-12-13T09:26:38.279Z,15.80
2022-12-13T09:31:40.577Z,26.40
2022-12-13T09:34:10.846Z,20.00
2022-12-13T09:36:38.966Z,24.40
2022-12-13T09:39:06.973Z,31.10
2022-12-13T09:41:41.038Z,57.70
2022-12-13T09:44:32.584Z,89.40
2022-12-13T09:47:34.979Z,494.30
2022-12-13T09:50:27.129Z,255.40
2022-12-13T09:52:59.813Z,353.10
2022-12-13T09:55:52.518Z,149.20
2022-12-13T09:58:28.766Z,163.10
2022-12-13T10:00:58.374Z,50.70
2022-12-13T10:03:26.967Z,32.60
2022-12-13T10:06:01.211Z,37.90
2022-12-13T10:08:37.325Z,45.50
2022-12-13T10:11:05.491Z,23.70
2022-12-13T10:13:46.505Z,24.20
2022-12-13T10:16:36.440Z,25.80
2022-12-13T10:19:33.050Z,30.00
2022-12-13T10:22:03.368Z,28.30
2022-12-13T10:24:49.676Z,24.50
2022-12-13T10:27:27.673Z,27.00
2022-12-13T10:30:16.166Z,23.00
2022-12-13T10:32:50.379Z,20.40
2022-12-13T10:35:23.548Z,28.80
2022-12-13T10:37:52.072Z,29.60
2022-12-13T10:40:36.468Z,33.90
2022-12-13T10:43:14.621Z,17.10
2022-12-13T10:45:56.486Z,19.00
2022-12-13T10:48:41.345Z,21.80
2022-12-13T10:51:13.064Z,33.30
2022-12-13T10:53:53.572Z,25.60
2022-12-13T10:56:32.977Z,17.80
2022-12-13T10:59:37.785Z,15.40
2022-12-13T11:02:38.243Z,20.30
2022-12-13T11:05:29.412Z,15.20
2022-12-13T11:08:23.382Z,12.10
2022-12-13T11:11:05.951Z,17.80
2022-12-13T11:13:51.768Z,10.70
2022-12-13T11:16:35.411Z,12.30
2022-12-13T11:19:07.679Z,14.00
2022-12-13T11:21:39.279Z,15.30
2022-12-13T11:24:08.795Z,34.30
2022-12-13T11:26:42.860Z,75.40
2022-12-13T11:29:23.540Z,18.90
2022-12-13T11:32:09.633Z,17.50
2022-12-13T11:34:54.450Z,38.00
2022-12-13T11:37:46.483Z,33.90
2022-12-13T11:40:20.984Z,71.70
2022-12-13T11:42:55.887Z,78.60
2022-12-13T11:45:37.740Z,42.50
2022-12-13T11:48:17.429Z,26.70
2022-12-13T11:50:48.809Z,29.00
2022-12-13T11:53:19.315Z,24.40
2022-12-13T11:55:55.334Z,15.10
2022-12-13T12:01:53.933Z,35.00
2022-12-13T12:04:31.776Z,18.40
2022-12-13T12:07:31.144Z,29.60
2022-12-13T12:10:27.314Z,48.60
2022-12-13T12:13:29.818Z,23.70
2022-12-13T12:16:17.837Z,33.80
2022-12-13T12:18:45.816Z,59.10
2022-12-13T12:21:42.808Z,34.30
2022-12-13T12:24:42.951Z,39.70
2022-12-13T12:27:22.545Z,38.50
2022-12-13T12:30:10.525Z,36.80
2022-12-13T12:32:44.238Z,49.30
2022-12-13T12:35:30.331Z,51.00
2022-12-13T12:38:26.557Z,90.10
2022-12-13T12:41:19.274Z,41.10
2022-12-13T12:43:59.836Z,26.90
2022-12-13T12:47:08.740Z,31.30
2022-12-13T12:49:56.267Z,49.70
2022-12-13T12:52:44.950Z,44.90
2022-12-13T12:55:28.628Z,28.80
2022-12-13T12:58:08.665Z,47.40
2022-12-13T13:01:07.434Z,30.90
2022-12-13T13:03:38.801Z,114.90
2022-12-13T13:06:19.166Z,65.80
2022-12-13T13:08:56.608Z,41.60
2022-12-13T13:11:27.609Z,108.70
2022-12-13T13:14:01.637Z,91.20
2022-12-13T13:16:33.791Z,69.10
2022-12-13T13:19:04.158Z,21.10
2022-12-13T13:21:38.348Z,24.20
2022-12-13T13:24:09.306Z,28.50
2022-12-13T13:26:39.874Z,45.50
2022-12-13T13:29:27.573Z,27.20
2022-12-13T13:32:02.094Z,30.50
2022-12-13T13:34:36.832Z,27.40
2022-12-13T13:37:25.893Z,49.30
2022-12-13T13:39:59.152Z,29.30
2022-12-13T13:42:31.956Z,89.20
2022-12-13T13:45:20.165Z,31.80
2022-12-13T13:48:14.176Z,22.70
2022-12-13T13:51:14.398Z,61.80
2022-12-13T13:54:14.070Z,35.60
2022-12-13T13:56:55.866Z,14.80
2022-12-13T13:59:38.135Z,33.60
2022-12-13T14:02:41.450Z,37.10
2022-12-13T14:05:46.168Z,51.70
2022-12-13T14:08:34.455Z,26.10
2022-12-13T14:11:28.620Z,23.30
2022-12-13T14:14:22.145Z,20.50
2022-12-13T14:17:19.693Z,25.40
2022-12-13T14:20:12.237Z,17.90
2022-12-13T14:22:48.115Z,15.80
2022-12-13T14:25:47.897Z,23.60
2022-12-13T14:28:35.538Z,26.40
2022-12-13T14:31:03.664Z,21.20
2022-12-13T14:33:31.688Z,25.50
2022-12-13T14:36:01.793Z,28.90
2022-12-13T14:38:31.683Z,35.00
2022-12-13T14:41:02.657Z,21.00
2022-12-13T14:43:33.657Z,15.40
2022-12-13T14:46:04.561Z,20.60
2022-12-13T14:48:53.864Z,23.20
2022-12-13T14:51:38.085Z,30.40
2022-12-13T14:54:07.984Z,33.30
2022-12-13T14:56:53.316Z,29.60
2022-12-13T14:59:21.226Z,28.30
2022-12-13T15:02:02.664Z,22.80
2022-12-13T15:04:34.034Z,26.20
2022-12-13T15:07:23.123Z,37.30
2022-12-13T15:10:03.439Z,70.10
2022-12-13T15:12:32.215Z,89.50
2022-12-13T15:15:05.334Z,51.20
2022-12-13T15:17:38.914Z,52.60
2022-12-13T15:20:30.217Z,42.20
2022-12-13T15:23:32.391Z,36.40
2022-12-13T15:26:28.425Z,36.80
2022-12-13T15:29:01.352Z,31.70
2022-12-13T15:31:40.602Z,39.40
2022-12-13T15:34:29.324Z,30.90
2022-12-13T15:37:29.221Z,21.80
2022-12-13T15:40:05.733Z,23.20
2022-12-13T15:42:37.242Z,26.50
2022-12-13T15:45:08.241Z,28.20
2022-12-13T15:47:36.307Z,33.50
2022-12-13T15:50:06.677Z,45.20
2022-12-13T15:52:40.591Z,45.00
2022-12-13T15:55:08.466Z,38.80
2022-12-13T15:57:50.522Z,38.30
2022-12-13T16:00:18.839Z,47.80
2022-12-13T16:03:09.478Z,43.60
2022-12-13T16:05:47.573Z,71.40
2022-12-13T16:08:24.726Z,198.70
2022-12-13T16:10:53.309Z,847.60
2022-12-13T16:13:28.257Z,862.70
2022-12-13T16:16:08.905Z,1074.70
2022-12-13T16:18:46.364Z,1346.70
2022-12-13T16:21:14.457Z,1647.80
2022-12-13T16:23:48.754Z,1233.10
2022-12-13T16:26:29.597Z,676.20
2022-12-13T16:28:59.528Z,431.60
2022-12-13T16:31:35.739Z,356.20
2022-12-13T16:34:05.597Z,357.70
2022-12-13T16:36:34.249Z,239.20
2022-12-13T16:39:03.553Z,159.40
2022-12-13T16:41:36.447Z,167.20
2022-12-13T16:44:06.925Z,207.90
2022-12-13T16:47:12.235Z,345.50
2022-12-13T16:49:29.325Z,812.70
2022-12-13T16:51:57.788Z,289.00
2022-12-13T16:54:26.445Z,255.80
2022-12-13T16:56:54.941Z,207.20
2022-12-13T16:59:25.639Z,423.30
2022-12-13T17:01:54.515Z,1012.70
2022-12-13T17:04:23.743Z,1051.10
2022-12-13T17:06:54.880Z,436.20
2022-12-13T17:09:25.182Z,365.50
2022-12-13T17:11:53.125Z,355.00
2022-12-13T17:14:21.032Z,664.60
2022-12-13T17:16:49.041Z,439.40
2022-12-13T17:19:17.532Z,601.10
2022-12-13T17:21:45.842Z,756.60
2022-12-13T17:24:13.898Z,383.00
2022-12-13T17:26:54.224Z,542.40
2022-12-13T17:29:26.043Z,465.40
2022-12-13T17:31:54.282Z,449.10
2022-12-13T17:34:22.346Z,528.10
2022-12-13T17:36:50.408Z,610.00
2022-12-13T17:39:18.575Z,415.10
2022-12-13T17:41:54.522Z,222.50
2022-12-13T17:44:25.395Z,457.10
2022-12-13T17:46:55.355Z,629.60
2022-12-13T17:49:24.846Z,943.90
2022-12-13T17:51:54.352Z,1251.00
2022-12-13T17:54:24.231Z,359.70
2022-12-13T17:56:53.608Z,371.50
2022-12-13T17:59:22.208Z,234.20
2022-12-13T18:01:51.218Z,283.70
2022-12-13T18:04:20.329Z,448.30
2022-12-13T18:06:48.399Z,952.50
2022-12-13T18:09:16.318Z,747.70
2022-12-13T18:11:44.302Z,563.00
2022-12-13T18:14:12.610Z,430.00
2022-12-13T18:16:40.843Z,1009.40
2022-12-13T18:19:11.839Z,515.90
2022-12-13T18:21:39.986Z,382.50
2022-12-13T18:24:08.182Z,421.30
2022-12-13T18:26:36.299Z,331.30
2022-12-13T18:29:04.923Z,205.80
2022-12-13T18:31:33.055Z,305.70
2022-12-13T18:34:01.530Z,199.80
2022-12-13T18:36:30.128Z,253.30
2022-12-13T18:38:58.293Z,303.80
2022-12-13T18:41:28.692Z,228.40
2022-12-13T18:43:59.190Z,279.80
2022-12-13T18:46:29.220Z,452.90
2022-12-13T18:48:57.747Z,200.50
2022-12-13T18:51:26.570Z,124.10
2022-12-13T18:53:56.013Z,532.00
2022-12-13T18:56:24.741Z,170.70
2022-12-13T18:58:53.494Z,228.20
2022-12-13T19:01:23.087Z,346.50
2022-12-13T19:03:51.247Z,238.30
2022-12-13T19:06:22.809Z,345.40
2022-12-13T19:08:53.064Z,558.70
2022-12-13T19:11:22.702Z,422.40
2022-12-13T19:13:50.663Z,256.50
2022-12-13T19:16:21.820Z,304.70
2022-12-13T19:18:50.271Z,206.00
2022-12-13T19:21:20.515Z,616.30
2022-12-13T19:23:57.015Z,584.00
2022-12-13T19:26:29.178Z,202.20
2022-12-13T19:28:59.445Z,216.30
2022-12-13T19:31:32.301Z,261.20
2022-12-13T19:34:02.505Z,366.80
2022-12-13T19:36:32.223Z,204.30
2022-12-13T19:39:00.463Z,305.90
2022-12-13T19:41:29.613Z,411.90
2022-12-13T19:43:58.270Z,287.50
2022-12-13T19:46:26.444Z,266.30
2022-12-13T19:48:54.492Z,206.80
2022-12-13T19:51:22.911Z,199.70
2022-12-13T19:53:51.275Z,242.90
2022-12-13T19:56:20.667Z,200.20
2022-12-13T19:58:49.852Z,165.30
2022-12-13T20:01:18.099Z,245.70
2022-12-13T20:03:47.048Z,155.10
2022-12-13T20:06:20.906Z,259.30
2022-12-13T20:08:50.414Z,214.10
2022-12-13T20:11:21.708Z,225.10
2022-12-13T20:13:53.721Z,218.80
2022-12-13T20:16:25.372Z,242.40
2022-12-13T20:18:57.616Z,297.00
2022-12-13T20:21:27.836Z,194.70
2022-12-13T20:23:56.721Z,170.40
2022-12-13T20:26:27.368Z,271.30
2022-12-13T20:28:56.529Z,322.80
2022-12-13T20:31:28.060Z,300.30
2022-12-13T20:33:58.307Z,236.70
2022-12-13T20:36:27.891Z,185.30
2022-12-13T20:38:58.320Z,144.40
2022-12-13T20:41:28.637Z,103.60
2022-12-13T20:43:58.449Z,104.50
2022-12-13T20:46:28.116Z,137.40
2022-12-13T20:48:57.824Z,127.20
2022-12-13T20:51:28.002Z,101.80
2022-12-13T20:53:57.193Z,106.00
2022-12-13T20:56:30.577Z,127.60
2022-12-13T20:58:58.593Z,152.70
2022-12-13T21:01:30.747Z,168.00
2022-12-13T21:04:00.924Z,163.10
2022-12-13T21:06:30.460Z,141.60
2022-12-13T21:09:04.907Z,152.10
2022-12-13T21:11:34.550Z,152.10
2022-12-13T21:14:10.966Z,168.20
2022-12-13T21:16:48.448Z,181.40
2022-12-13T21:19:22.515Z,277.60
2022-12-13T21:21:50.493Z,282.20
2022-12-13T21:24:20.448Z,317.20
2022-12-13T21:26:48.608Z,352.60
2022-12-13T21:29:17.375Z,291.90
2022-12-13T21:31:49.087Z,252.20
2022-12-13T21:34:18.459Z,248.90
2022-12-13T21:36:48.688Z,203.10
2022-12-13T21:39:19.030Z,198.70
2022-12-13T21:41:46.994Z,185.70
2022-12-13T21:44:16.541Z,206.00
2022-12-13T21:47:11.420Z,236.40
2022-12-13T21:49:32.884Z,254.00
2022-12-13T21:52:00.845Z,324.60
2022-12-13T21:54:28.777Z,268.40
2022-12-13T21:57:15.261Z,253.90
2022-12-13T21:59:43.654Z,274.80
2022-12-13T22:02:18.464Z,254.00
2022-12-13T22:04:50.309Z,190.60
2022-12-13T22:07:21.158Z,169.90
2022-12-13T22:09:49.750Z,171.80
2022-12-13T22:12:26.152Z,178.90
2022-12-13T22:14:54.006Z,186.50
2022-12-13T22:17:26.883Z,171.60
2022-12-13T22:19:59.470Z,163.80
2022-12-13T22:22:27.447Z,170.90
2022-12-13T22:24:55.510Z,157.90
2022-12-13T22:27:25.275Z,163.50
2022-12-13T22:29:57.192Z,153.90
2022-12-13T22:32:27.527Z,174.40
2022-12-13T22:34:55.779Z,146.00
2022-12-13T22:37:24.277Z,161.60
2022-12-13T22:39:52.514Z,191.30
2022-12-13T22:42:21.208Z,209.40
2022-12-13T22:44:49.158Z,169.90
2022-12-13T22:47:17.143Z,161.30
2022-12-13T22:49:45.214Z,160.80
2022-12-13T22:52:17.646Z,167.60
2022-12-13T22:54:45.843Z,152.10
2022-12-13T22:57:14.021Z,153.00
2022-12-13T22:59:41.954Z,171.30
2022-12-13T23:02:10.121Z,152.60
2022-12-13T23:04:39.366Z,149.40
2022-12-13T23:07:07.439Z,142.60
2022-12-13T23:09:35.346Z,146.60
2022-12-13T23:12:21.539Z,157.10
2022-12-13T23:14:49.466Z,165.90
2022-12-13T23:17:17.297Z,152.40
2022-12-13T23:19:50.865Z,167.90
2022-12-13T23:22:23.195Z,154.80
2022-12-13T23:24:52.455Z,108.90
2022-12-13T23:27:22.644Z,102.70
2022-12-13T23:29:50.565Z,106.00
2022-12-13T23:32:18.646Z,97.80
2022-12-13T23:34:46.634Z,103.50
2022-12-13T23:37:14.577Z,107.20
2022-12-13T23:39:42.461Z,401.20
2022-12-13T23:42:10.476Z,351.80
2022-12-13T23:44:38.415Z,252.70
2022-12-13T23:47:06.376Z,167.70
2022-12-13T23:49:34.408Z,178.30
2022-12-13T23:52:02.176Z,197.60
2022-12-13T23:54:30.011Z,252.70
2022-12-13T23:56:57.967Z,199.80
2022-12-13T23:59:27.636Z,174.60
